sensor_id;sensor_type;location;lat;lon;timestamp;P1;durP1;ratioP1;P2;durP2;ratioP2
21386;SDS011;10854;45.922;6.716;2023-06-22T15:34:00;16.83;;;3.00;;
21386;SDS011;10854;45.922;6.716;2023-06-22T15:36:32;8.93;;;2.70;;
21386;SDS011;10854;45.922;6.716;2023-06-22T15:39:01;7.93;;;2.03;;
21386;SDS011;10854;45.922;6.716;2023-06-22T15:41:29;6.83;;;2.30;;
21386;SDS011;10854;45.922;6.716;2023-06-22T15:43:58;7.83;;;2.17;;
21386;SDS011;10854;45.922;6.716;2023-06-22T15:46:26;5.10;;;1.83;;
21386;SDS011;10854;45.922;6.716;2023-06-22T15:48:55;2.83;;;1.60;;
21386;SDS011;10854;45.922;6.716;2023-06-22T15:51:23;2.67;;;1.50;;
21386;SDS011;10854;45.922;6.716;2023-06-22T15:53:52;1.73;;;1.20;;
21386;SDS011;10854;45.922;6.716;2023-06-22T15:56:21;4.57;;;1.60;;
21386;SDS011;10854;45.922;6.716;2023-06-22T15:58:50;4.93;;;2.00;;
21386;SDS011;10854;45.922;6.716;2023-06-22T16:01:19;4.37;;;1.97;;
21386;SDS011;10854;45.922;6.716;2023-06-22T16:03:52;5.03;;;2.10;;
21386;SDS011;10854;45.922;6.716;2023-06-22T16:06:20;3.93;;;1.90;;
21386;SDS011;10854;45.922;6.716;2023-06-22T16:08:49;2.93;;;1.67;;
21386;SDS011;10854;45.922;6.716;2023-06-22T16:11:18;4.23;;;2.00;;
21386;SDS011;10854;45.922;6.716;2023-06-22T16:13:46;2.87;;;1.67;;
21386;SDS011;10854;45.922;6.716;2023-06-22T16:16:14;5.07;;;1.97;;
21386;SDS011;10854;45.922;6.716;2023-06-22T16:18:43;3.80;;;2.07;;
21386;SDS011;10854;45.922;6.716;2023-06-22T16:21:13;4.17;;;1.80;;
21386;SDS011;10854;45.922;6.716;2023-06-22T16:23:41;7.33;;;2.40;;
21386;SDS011;10854;45.922;6.716;2023-06-22T16:26:09;6.13;;;1.97;;
21386;SDS011;10854;45.922;6.716;2023-06-22T16:28:38;5.20;;;1.80;;
21386;SDS011;10854;45.922;6.716;2023-06-22T16:31:06;4.37;;;1.70;;
21386;SDS011;10854;45.922;6.716;2023-06-22T16:33:35;6.23;;;2.03;;
21386;SDS011;10854;45.922;6.716;2023-06-22T16:36:03;5.87;;;2.00;;
21386;SDS011;10854;45.922;6.716;2023-06-22T16:38:32;5.80;;;2.00;;
21386;SDS011;10854;45.922;6.716;2023-06-22T16:41:01;5.63;;;2.00;;
21386;SDS011;10854;45.922;6.716;2023-06-22T16:43:32;3.47;;;2.17;;
21386;SDS011;10854;45.922;6.716;2023-06-22T16:46:01;3.57;;;1.87;;
21386;SDS011;10854;45.922;6.716;2023-06-22T16:48:29;3.63;;;2.10;;
21386;SDS011;10854;45.922;6.716;2023-06-22T16:50:58;3.90;;;1.90;;
21386;SDS011;10854;45.922;6.716;2023-06-22T16:53:26;10.63;;;2.10;;
21386;SDS011;10854;45.922;6.716;2023-06-22T16:55:56;2.83;;;1.90;;
21386;SDS011;10854;45.922;6.716;2023-06-22T16:58:25;6.37;;;1.90;;
21386;SDS011;10854;45.922;6.716;2023-06-22T17:00:55;5.03;;;2.07;;
21386;SDS011;10854;45.922;6.716;2023-06-22T17:03:25;5.40;;;2.00;;
21386;SDS011;10854;45.922;6.716;2023-06-22T17:05:56;4.40;;;1.73;;
21386;SDS011;10854;45.922;6.716;2023-06-22T17:08:27;6.93;;;2.50;;
21386;SDS011;10854;45.922;6.716;2023-06-22T17:11:00;12.63;;;2.83;;
21386;SDS011;10854;45.922;6.716;2023-06-22T17:13:29;5.97;;;2.43;;
21386;SDS011;10854;45.922;6.716;2023-06-22T17:15:58;3.93;;;1.90;;
21386;SDS011;10854;45.922;6.716;2023-06-22T17:18:29;8.13;;;2.90;;
21386;SDS011;10854;45.922;6.716;2023-06-22T17:21:00;3.07;;;2.17;;
21386;SDS011;10854;45.922;6.716;2023-06-22T17:23:29;7.03;;;2.20;;
21386;SDS011;10854;45.922;6.716;2023-06-22T17:25:58;4.87;;;2.27;;
21386;SDS011;10854;45.922;6.716;2023-06-22T17:28:45;3.17;;;1.83;;
21386;SDS011;10854;45.922;6.716;2023-06-22T17:31:18;4.27;;;1.90;;
21386;SDS011;10854;45.922;6.716;2023-06-22T17:33:50;6.77;;;2.27;;
21386;SDS011;10854;45.922;6.716;2023-06-22T17:36:18;3.80;;;1.90;;
21386;SDS011;10854;45.922;6.716;2023-06-22T17:38:47;5.30;;;2.10;;
21386;SDS011;10854;45.922;6.716;2023-06-22T17:41:15;4.97;;;1.90;;
21386;SDS011;10854;45.922;6.716;2023-06-22T17:43:44;5.83;;;2.07;;
21386;SDS011;10854;45.922;6.716;2023-06-22T17:46:13;2.97;;;2.03;;
21386;SDS011;10854;45.922;6.716;2023-06-22T17:48:44;3.60;;;1.90;;
21386;SDS011;10854;45.922;6.716;2023-06-22T17:51:15;3.40;;;2.20;;
21386;SDS011;10854;45.922;6.716;2023-06-22T17:53:49;4.20;;;2.00;;
21386;SDS011;10854;45.922;6.716;2023-06-22T17:56:18;4.43;;;2.20;;
21386;SDS011;10854;45.922;6.716;2023-06-22T17:58:53;5.07;;;2.43;;
21386;SDS011;10854;45.922;6.716;2023-06-22T18:01:28;5.10;;;2.80;;
21386;SDS011;10854;45.922;6.716;2023-06-22T18:04:09;4.60;;;2.40;;
21386;SDS011;10854;45.922;6.716;2023-06-22T18:06:44;3.57;;;2.37;;
21386;SDS011;10854;45.922;6.716;2023-06-22T18:09:14;4.43;;;2.33;;
21386;SDS011;10854;45.922;6.716;2023-06-22T18:11:50;6.43;;;2.80;;
21386;SDS011;10854;45.922;6.716;2023-06-22T18:14:19;4.87;;;2.80;;
21386;SDS011;10854;45.922;6.716;2023-06-22T18:16:48;5.87;;;2.70;;
21386;SDS011;10854;45.922;6.716;2023-06-22T18:19:19;4.80;;;2.47;;
21386;SDS011;10854;45.922;6.716;2023-06-22T18:21:48;5.63;;;2.73;;
21386;SDS011;10854;45.922;6.716;2023-06-22T18:24:17;5.23;;;3.23;;
21386;SDS011;10854;45.922;6.716;2023-06-22T18:26:47;5.90;;;2.53;;
21386;SDS011;10854;45.922;6.716;2023-06-22T18:29:16;4.97;;;2.47;;
21386;SDS011;10854;45.922;6.716;2023-06-22T18:31:47;4.67;;;2.30;;
21386;SDS011;10854;45.922;6.716;2023-06-22T18:34:15;5.63;;;2.40;;
21386;SDS011;10854;45.922;6.716;2023-06-22T18:36:51;4.63;;;2.67;;
21386;SDS011;10854;45.922;6.716;2023-06-22T18:39:21;4.37;;;2.53;;
21386;SDS011;10854;45.922;6.716;2023-06-22T18:41:51;4.67;;;2.80;;
21386;SDS011;10854;45.922;6.716;2023-06-22T18:44:25;5.77;;;2.53;;
21386;SDS011;10854;45.922;6.716;2023-06-22T18:46:57;3.87;;;2.60;;
21386;SDS011;10854;45.922;6.716;2023-06-22T18:49:32;7.63;;;3.37;;
21386;SDS011;10854;45.922;6.716;2023-06-22T18:52:16;6.00;;;2.60;;
21386;SDS011;10854;45.922;6.716;2023-06-22T18:54:52;3.33;;;2.17;;
21386;SDS011;10854;45.922;6.716;2023-06-22T18:57:26;4.73;;;2.57;;
21386;SDS011;10854;45.922;6.716;2023-06-22T19:02:34;3.07;;;2.10;;
21386;SDS011;10854;45.922;6.716;2023-06-22T19:10:30;3.67;;;2.20;;
21386;SDS011;10854;45.922;6.716;2023-06-22T19:13:23;4.57;;;2.17;;
21386;SDS011;10854;45.922;6.716;2023-06-22T19:15:58;3.23;;;2.07;;
21386;SDS011;10854;45.922;6.716;2023-06-22T19:18:32;2.90;;;1.83;;
21386;SDS011;10854;45.922;6.716;2023-06-22T19:21:02;6.43;;;1.97;;
21386;SDS011;10854;45.922;6.716;2023-06-22T19:23:34;7.93;;;2.20;;
21386;SDS011;10854;45.922;6.716;2023-06-22T19:26:06;2.93;;;1.93;;
21386;SDS011;10854;45.922;6.716;2023-06-22T19:28:48;5.43;;;1.90;;
21386;SDS011;10854;45.922;6.716;2023-06-22T19:31:20;3.10;;;1.90;;
21386;SDS011;10854;45.922;6.716;2023-06-22T19:33:53;3.53;;;1.97;;
21386;SDS011;10854;45.922;6.716;2023-06-22T19:36:30;3.97;;;1.60;;
21386;SDS011;10854;45.922;6.716;2023-06-22T19:39:01;2.93;;;1.70;;
21386;SDS011;10854;45.922;6.716;2023-06-22T19:41:31;3.40;;;1.97;;
21386;SDS011;10854;45.922;6.716;2023-06-22T19:43:59;4.60;;;2.10;;
21386;SDS011;10854;45.922;6.716;2023-06-22T19:46:28;2.73;;;1.60;;
21386;SDS011;10854;45.922;6.716;2023-06-22T19:48:58;4.23;;;1.67;;
21386;SDS011;10854;45.922;6.716;2023-06-22T19:51:33;2.47;;;1.50;;
21386;SDS011;10854;45.922;6.716;2023-06-22T19:54:06;5.93;;;1.63;;
21386;SDS011;10854;45.922;6.716;2023-06-22T19:56:36;3.30;;;1.57;;
21386;SDS011;10854;45.922;6.716;2023-06-22T19:59:12;1.73;;;1.40;;
21386;SDS011;10854;45.922;6.716;2023-06-22T20:01:48;2.13;;;1.50;;
21386;SDS011;10854;45.922;6.716;2023-06-22T20:04:17;3.00;;;1.70;;
21386;SDS011;10854;45.922;6.716;2023-06-22T20:07:02;3.17;;;1.70;;
21386;SDS011;10854;45.922;6.716;2023-06-22T20:09:33;2.80;;;1.60;;
21386;SDS011;10854;45.922;6.716;2023-06-22T20:12:04;5.27;;;1.80;;
21386;SDS011;10854;45.922;6.716;2023-06-22T20:14:33;4.43;;;2.20;;
21386;SDS011;10854;45.922;6.716;2023-06-22T20:17:04;6.87;;;2.40;;
21386;SDS011;10854;45.922;6.716;2023-06-22T20:19:36;3.43;;;2.10;;
21386;SDS011;10854;45.922;6.716;2023-06-22T20:22:08;4.13;;;2.30;;
21386;SDS011;10854;45.922;6.716;2023-06-22T20:24:38;2.57;;;2.37;;
21386;SDS011;10854;45.922;6.716;2023-06-22T20:27:09;3.17;;;1.90;;
21386;SDS011;10854;45.922;6.716;2023-06-22T20:29:44;5.03;;;2.07;;
21386;SDS011;10854;45.922;6.716;2023-06-22T20:32:13;2.80;;;1.80;;
21386;SDS011;10854;45.922;6.716;2023-06-22T20:34:42;6.17;;;2.53;;
21386;SDS011;10854;45.922;6.716;2023-06-22T20:37:16;4.10;;;2.03;;
21386;SDS011;10854;45.922;6.716;2023-06-22T20:39:55;3.03;;;1.90;;
21386;SDS011;10854;45.922;6.716;2023-06-22T20:42:24;4.07;;;2.10;;
21386;SDS011;10854;45.922;6.716;2023-06-22T20:44:52;8.10;;;2.00;;
21386;SDS011;10854;45.922;6.716;2023-06-22T20:47:21;4.57;;;1.63;;
21386;SDS011;10854;45.922;6.716;2023-06-22T20:49:50;4.97;;;1.77;;
21386;SDS011;10854;45.922;6.716;2023-06-22T20:52:18;2.53;;;1.80;;
21386;SDS011;10854;45.922;6.716;2023-06-22T20:54:47;2.60;;;1.90;;
21386;SDS011;10854;45.922;6.716;2023-06-22T20:57:15;2.97;;;1.80;;
21386;SDS011;10854;45.922;6.716;2023-06-22T20:59:44;3.27;;;1.90;;
21386;SDS011;10854;45.922;6.716;2023-06-22T21:02:13;4.93;;;1.90;;
21386;SDS011;10854;45.922;6.716;2023-06-22T21:04:45;3.20;;;2.07;;
21386;SDS011;10854;45.922;6.716;2023-06-22T21:07:17;2.17;;;1.97;;
21386;SDS011;10854;45.922;6.716;2023-06-22T21:09:45;4.07;;;2.03;;
21386;SDS011;10854;45.922;6.716;2023-06-22T21:12:17;4.90;;;2.30;;
21386;SDS011;10854;45.922;6.716;2023-06-22T21:14:47;4.10;;;2.40;;
21386;SDS011;10854;45.922;6.716;2023-06-22T21:17:17;5.80;;;2.77;;
21386;SDS011;10854;45.922;6.716;2023-06-22T21:19:46;6.17;;;3.10;;
21386;SDS011;10854;45.922;6.716;2023-06-22T21:22:17;4.70;;;3.10;;
21386;SDS011;10854;45.922;6.716;2023-06-22T21:25:09;6.83;;;3.27;;
21386;SDS011;10854;45.922;6.716;2023-06-22T21:27:39;5.00;;;2.50;;
21386;SDS011;10854;45.922;6.716;2023-06-22T21:30:09;4.90;;;2.50;;
21386;SDS011;10854;45.922;6.716;2023-06-22T21:32:39;3.17;;;2.50;;
21386;SDS011;10854;45.922;6.716;2023-06-22T21:35:08;3.73;;;2.60;;
21386;SDS011;10854;45.922;6.716;2023-06-22T21:37:38;5.33;;;2.57;;
21386;SDS011;10854;45.922;6.716;2023-06-22T21:40:06;4.57;;;2.70;;
21386;SDS011;10854;45.922;6.716;2023-06-22T21:42:35;8.87;;;3.30;;
21386;SDS011;10854;45.922;6.716;2023-06-22T21:45:04;6.00;;;3.80;;
21386;SDS011;10854;45.922;6.716;2023-06-22T21:47:32;4.60;;;3.63;;
21386;SDS011;10854;45.922;6.716;2023-06-22T21:50:01;5.27;;;3.00;;
21386;SDS011;10854;45.922;6.716;2023-06-22T21:52:29;5.23;;;2.80;;
21386;SDS011;10854;45.922;6.716;2023-06-22T21:54:57;9.50;;;2.73;;
21386;SDS011;10854;45.922;6.716;2023-06-22T21:57:26;4.90;;;3.60;;
21386;SDS011;10854;45.922;6.716;2023-06-22T21:59:55;6.07;;;4.20;;
21386;SDS011;10854;45.922;6.716;2023-06-22T22:02:23;6.83;;;4.47;;
21386;SDS011;10854;45.922;6.716;2023-06-22T22:04:52;8.33;;;4.63;;
21386;SDS011;10854;45.922;6.716;2023-06-22T22:07:20;7.87;;;5.10;;
21386;SDS011;10854;45.922;6.716;2023-06-22T22:09:49;10.47;;;5.60;;
21386;SDS011;10854;45.922;6.716;2023-06-22T22:12:17;8.10;;;5.10;;
21386;SDS011;10854;45.922;6.716;2023-06-22T22:14:47;11.17;;;5.67;;
21386;SDS011;10854;45.922;6.716;2023-06-22T22:17:16;9.37;;;5.33;;
21386;SDS011;10854;45.922;6.716;2023-06-22T22:19:44;7.30;;;5.27;;
21386;SDS011;10854;45.922;6.716;2023-06-22T22:22:13;7.80;;;5.60;;
21386;SDS011;10854;45.922;6.716;2023-06-22T22:24:41;8.30;;;5.77;;
21386;SDS011;10854;45.922;6.716;2023-06-22T22:27:10;10.00;;;6.90;;
21386;SDS011;10854;45.922;6.716;2023-06-22T22:29:38;9.23;;;6.20;;
21386;SDS011;10854;45.922;6.716;2023-06-22T22:32:07;7.67;;;6.50;;
21386;SDS011;10854;45.922;6.716;2023-06-22T22:34:36;7.73;;;5.77;;
21386;SDS011;10854;45.922;6.716;2023-06-22T22:37:04;7.53;;;6.03;;
21386;SDS011;10854;45.922;6.716;2023-06-22T22:39:34;7.63;;;5.87;;
21386;SDS011;10854;45.922;6.716;2023-06-22T22:42:05;12.50;;;6.03;;
21386;SDS011;10854;45.922;6.716;2023-06-22T22:44:34;8.57;;;5.60;;
21386;SDS011;10854;45.922;6.716;2023-06-22T22:47:03;8.33;;;6.40;;
21386;SDS011;10854;45.922;6.716;2023-06-22T22:49:32;8.47;;;6.10;;
21386;SDS011;10854;45.922;6.716;2023-06-22T22:52:00;8.80;;;6.33;;
21386;SDS011;10854;45.922;6.716;2023-06-22T22:54:30;7.80;;;6.53;;
21386;SDS011;10854;45.922;6.716;2023-06-22T22:56:59;9.73;;;8.07;;
21386;SDS011;10854;45.922;6.716;2023-06-22T22:59:28;9.10;;;7.77;;
21386;SDS011;10854;45.922;6.716;2023-06-22T23:01:56;11.93;;;7.23;;
21386;SDS011;10854;45.922;6.716;2023-06-22T23:04:25;10.50;;;7.70;;
21386;SDS011;10854;45.922;6.716;2023-06-22T23:06:53;12.00;;;8.40;;
21386;SDS011;10854;45.922;6.716;2023-06-22T23:09:23;10.97;;;7.00;;
21386;SDS011;10854;45.922;6.716;2023-06-22T23:11:52;9.37;;;6.40;;
21386;SDS011;10854;45.922;6.716;2023-06-22T23:14:20;7.77;;;5.87;;
21386;SDS011;10854;45.922;6.716;2023-06-22T23:16:49;11.37;;;5.33;;
21386;SDS011;10854;45.922;6.716;2023-06-22T23:19:17;11.13;;;5.30;;
21386;SDS011;10854;45.922;6.716;2023-06-22T23:21:46;7.60;;;5.07;;
21386;SDS011;10854;45.922;6.716;2023-06-22T23:24:16;7.93;;;5.60;;
21386;SDS011;10854;45.922;6.716;2023-06-22T23:26:45;9.17;;;7.20;;
21386;SDS011;10854;45.922;6.716;2023-06-22T23:29:15;11.40;;;6.70;;
21386;SDS011;10854;45.922;6.716;2023-06-22T23:31:44;9.87;;;6.53;;
21386;SDS011;10854;45.922;6.716;2023-06-22T23:34:13;7.23;;;6.20;;
21386;SDS011;10854;45.922;6.716;2023-06-22T23:36:42;13.80;;;6.17;;
21386;SDS011;10854;45.922;6.716;2023-06-22T23:39:11;10.73;;;7.80;;
21386;SDS011;10854;45.922;6.716;2023-06-22T23:41:41;11.30;;;8.47;;
21386;SDS011;10854;45.922;6.716;2023-06-22T23:44:10;14.17;;;8.17;;
21386;SDS011;10854;45.922;6.716;2023-06-22T23:46:39;10.57;;;6.63;;
21386;SDS011;10854;45.922;6.716;2023-06-22T23:49:08;10.40;;;7.00;;
21386;SDS011;10854;45.922;6.716;2023-06-22T23:51:37;9.87;;;6.87;;
21386;SDS011;10854;45.922;6.716;2023-06-22T23:54:05;11.50;;;7.60;;
21386;SDS011;10854;45.922;6.716;2023-06-22T23:56:34;12.93;;;7.50;;
21386;SDS011;10854;45.922;6.716;2023-06-22T23:59:05;11.10;;;7.07;;
